^^
Datos históricos de la estación: Murcia-Puente Tocinos
Diario Informe para Diciembre 21, 2019 Unidades:  Ambas    Ingés   Métrico
Diario Semanal Mensual Anual
  Máxima: Mínima: Promedio:
Temperatura: 74.7 °F /  23.7 °C 58.1 °F /  14.5 °C 67.5 °F /  19.7 °C
Punto de rocio: 57.6 °F /  14.2 °C 39.4 °F /  4.1 °C 53.2 °F /  11.8 °C
Humedad: 86.6% 32% 63%
Velocidad viento: 16.8mph /  27km/h - 7.7mph /  12.4km/h
Racha viento: 31.1mph /  50.1km/h - -
Viento- - Sur
Presión: 29.8 in /  1009.2 hPa 29.6 in /  1002.2 hPa -
Precipitación: 0 in /  0.0 mm    
 
 
Tabla de datos para Diciembre 21, 2019
Hora Temperatura Punto de rocio Presión Viento Velocidad viento Racha viento Humedad Intensidad lluvia(por hora) Nubes
00:04 66.4 °F /  19.1 °C 55.6 °F /  13.1 °C 29.6in /  1002.2hPa SSO 9.9mph /  16km/h 16mph /  25.7km/h 68.5% 0in /  0.0mm
00:09 66.7 °F /  19.3 °C 55.6 °F /  13.1 °C 29.6in /  1002.3hPa SSO 9.7mph /  15.6km/h 19.7mph /  31.7km/h 67.4% 0in /  0.0mm
00:14 67.5 °F /  19.7 °C 55.8 °F /  13.2 °C 29.6in /  1002.3hPa SSO 10.5mph /  16.9km/h 20mph /  32.2km/h 66.1% 0in /  0.0mm
00:19 67.6 °F /  19.8 °C 55.6 °F /  13.1 °C 29.6in /  1002.3hPa SSO 11.2mph /  18km/h 18.5mph /  29.8km/h 65.2% 0in /  0.0mm
00:24 67.8 °F /  19.9 °C 55.6 °F /  13.1 °C 29.6in /  1002.3hPa SSO 11.3mph /  18.2km/h 19mph /  30.6km/h 65% 0in /  0.0mm
00:29 67.6 °F /  19.8 °C 55.6 °F /  13.1 °C 29.6in /  1002.2hPa SSO 11.4mph /  18.4km/h 19mph /  30.6km/h 65% 0in /  0.0mm
00:34 67.5 °F /  19.7 °C 55.6 °F /  13.1 °C 29.6in /  1002.2hPa SSO 10.7mph /  17.3km/h 19mph /  30.6km/h 65.5% 0in /  0.0mm
00:39 67.1 °F /  19.5 °C 55.6 °F /  13.1 °C 29.6in /  1002.3hPa SSO 10.2mph /  16.4km/h 17.3mph /  27.8km/h 66.4% 0in /  0.0mm
00:44 66.7 °F /  19.3 °C 55.4 °F /  13 °C 29.6in /  1002.3hPa SSO 9.9mph /  16km/h 17mph /  27.4km/h 67% 0in /  0.0mm
00:49 66.6 °F /  19.2 °C 55.6 °F /  13.1 °C 29.6in /  1002.3hPa SO 9.7mph /  15.6km/h 14mph /  22.5km/h 67.8% 0in /  0.0mm
00:54 66.4 °F /  19.1 °C 55.4 °F /  13 °C 29.6in /  1002.5hPa SO 8.2mph /  13.2km/h 11.5mph /  18.5km/h 68% 0in /  0.0mm
00:59 66.2 °F /  19 °C 55.2 °F /  12.9 °C 29.6in /  1002.5hPa SO 6.9mph /  11.1km/h 12mph /  19.3km/h 68% 0in /  0.0mm
01:04 66 °F /  18.9 °C 55.2 °F /  12.9 °C 29.6in /  1002.5hPa SSO 6.1mph /  9.8km/h 11.8mph /  19km/h 68% 0in /  0.0mm
01:09 66.2 °F /  19 °C 55.2 °F /  12.9 °C 29.6in /  1002.5hPa SSO 5.4mph /  8.7km/h 13mph /  20.9km/h 68% 0in /  0.0mm
01:14 66.2 °F /  19 °C 55.2 °F /  12.9 °C 29.6in /  1002.5hPa SO 6.2mph /  9.9km/h 13mph /  20.9km/h 68% 0in /  0.0mm
01:19 66 °F /  18.9 °C 55.2 °F /  12.9 °C 29.6in /  1002.5hPa SSO 6.9mph /  11.1km/h 10.4mph /  16.7km/h 68% 0in /  0.0mm
01:24 66 °F /  18.9 °C 55.2 °F /  12.9 °C 29.6in /  1002.7hPa SO 6.4mph /  10.3km/h 10mph /  16.1km/h 68% 0in /  0.0mm
01:29 66 °F /  18.9 °C 55.2 °F /  12.9 °C 29.6in /  1002.7hPa SSO 5.9mph /  9.5km/h 10mph /  16.1km/h 68% 0in /  0.0mm
01:34 65.8 °F /  18.8 °C 55 °F /  12.8 °C 29.6in /  1002.7hPa SSO 5mph /  8.1km/h 8mph /  12.9km/h 68% 0in /  0.0mm
01:39 65.8 °F /  18.8 °C 55 °F /  12.8 °C 29.6in /  1002.7hPa SSE 4.3mph /  6.9km/h 7mph /  11.3km/h 68% 0in /  0.0mm
01:44 65.8 °F /  18.8 °C 55 °F /  12.8 °C 29.6in /  1002.7hPa Sur 4mph /  6.4km/h 6.2mph /  10km/h 68% 0in /  0.0mm
01:49 66 °F /  18.9 °C 55.2 °F /  12.9 °C 29.6in /  1002.7hPa SSO 3.6mph /  5.8km/h 8.1mph /  13km/h 68% 0in /  0.0mm
01:54 66.4 °F /  19.1 °C 55 °F /  12.8 °C 29.6in /  1002.7hPa SO 4.4mph /  7.1km/h 9.2mph /  14.8km/h 67.1% 0in /  0.0mm
01:59 66.6 °F /  19.2 °C 55.2 °F /  12.9 °C 29.6in /  1002.6hPa SSO 5.2mph /  8.4km/h 9mph /  14.5km/h 67% 0in /  0.0mm
02:04 66.6 °F /  19.2 °C 55.2 °F /  12.9 °C 29.6in /  1002.6hPa SSO 4.9mph /  7.9km/h 8mph /  12.9km/h 67% 0in /  0.0mm
02:09 66.6 °F /  19.2 °C 55.4 °F /  13 °C 29.6in /  1002.6hPa SSO 4.7mph /  7.6km/h 7mph /  11.3km/h 67% 0in /  0.0mm
02:14 66.7 °F /  19.3 °C 55 °F /  12.8 °C 29.6in /  1002.5hPa Sur 4.3mph /  7km/h 6mph /  9.7km/h 66.2% 0in /  0.0mm
02:19 66.7 °F /  19.3 °C 55 °F /  12.8 °C 29.6in /  1002.5hPa Sur 4mph /  6.5km/h 6mph /  9.7km/h 66.1% 0in /  0.0mm
02:24 66.6 °F /  19.2 °C 55.2 °F /  12.9 °C 29.6in /  1002.8hPa Sur 3.8mph /  6.1km/h 6mph /  9.7km/h 67% 0in /  0.0mm
02:29 66.6 °F /  19.2 °C 55.2 °F /  12.9 °C 29.6in /  1002.8hPa SSO 3.6mph /  5.8km/h 5mph /  8km/h 67% 0in /  0.0mm
02:34 66.4 °F /  19.1 °C 55 °F /  12.8 °C 29.6in /  1002.8hPa SSO 3mph /  4.8km/h 5mph /  8km/h 67% 0in /  0.0mm
02:39 66 °F /  18.9 °C 55 °F /  12.8 °C 29.6in /  1002.9hPa SSE 2.4mph /  3.9km/h 5mph /  8km/h 67.8% 0in /  0.0mm
02:44 65.7 °F /  18.7 °C 55 °F /  12.8 °C 29.6in /  1002.9hPa ENE 1.2mph /  1.9km/h 3.5mph /  5.6km/h 68.4% 0in /  0.0mm
02:49 65.5 °F /  18.6 °C 55 °F /  12.8 °C 29.6in /  1002.9hPa Calm   2mph /  3.2km/h 69% 0in /  0.0mm
02:54 65.1 °F /  18.4 °C 55 °F /  12.8 °C 29.6in /  1003.1hPa Calm     69.7% 0in /  0.0mm
02:59 64.9 °F /  18.3 °C 54.9 °F /  12.7 °C 29.6in /  1003.1hPa Calm     70.3% 0in /  0.0mm
03:04 64.8 °F /  18.2 °C 55 °F /  12.8 °C 29.6in /  1003.1hPa Calm   2mph /  3.2km/h 71% 0in /  0.0mm
03:09 64.8 °F /  18.2 °C 55 °F /  12.8 °C 29.6in /  1003.3hPa Calm   2.4mph /  3.9km/h 71% 0in /  0.0mm
03:14 64.8 °F /  18.2 °C 55.2 °F /  12.9 °C 29.6in /  1003.3hPa Calm   2.3mph /  3.7km/h 71% 0in /  0.0mm
03:19 64.8 °F /  18.2 °C 55 °F /  12.8 °C 29.6in /  1003.3hPa Calm   5.2mph /  8.4km/h 70.7% 0in /  0.0mm
03:24 64.2 °F /  17.9 °C 54.9 °F /  12.7 °C 29.6in /  1003.7hPa NNE 1.2mph /  2km/h 6.4mph /  10.3km/h 71.4% 0in /  0.0mm
03:29 63.7 °F /  17.6 °C 54.7 °F /  12.6 °C 29.6in /  1003.7hPa NNE 2.4mph /  3.9km/h 7mph /  11.3km/h 72.5% 0in /  0.0mm
03:34 63 °F /  17.2 °C 54.5 °F /  12.5 °C 29.6in /  1003.7hPa NNE 3.2mph /  5.2km/h 6.9mph /  11.1km/h 74.2% 0in /  0.0mm
03:39 62.4 °F /  16.9 °C 54.7 °F /  12.6 °C 29.6in /  1003.9hPa NE 4mph /  6.5km/h 7mph /  11.3km/h 75.5% 0in /  0.0mm
03:44 62.4 °F /  16.9 °C 54.9 °F /  12.7 °C 29.6in /  1003.9hPa NE 4.3mph /  7km/h 7mph /  11.3km/h 76% 0in /  0.0mm
03:49 62.4 °F /  16.9 °C 54.9 °F /  12.7 °C 29.6in /  1003.9hPa ENE 4.7mph /  7.6km/h 7mph /  11.3km/h 76% 0in /  0.0mm
03:54 62.4 °F /  16.9 °C 54.9 °F /  12.7 °C 29.6in /  1003.9hPa ENE 4.5mph /  7.2km/h 7mph /  11.3km/h 76% 0in /  0.0mm
03:59 62.8 °F /  17.1 °C 55 °F /  12.8 °C 29.6in /  1003.9hPa NE 4.3mph /  6.9km/h 6.2mph /  10km/h 76% 0in /  0.0mm
04:04 62.8 °F /  17.1 °C 54.7 °F /  12.6 °C 29.6in /  1003.9hPa NNE 3.9mph /  6.3km/h 6mph /  9.7km/h 75% 0in /  0.0mm
04:09 62.8 °F /  17.1 °C 55 °F /  12.8 °C 29.6in /  1003.9hPa NE 3.6mph /  5.8km/h 6.2mph /  10km/h 75.7% 0in /  0.0mm
04:14 63 °F /  17.2 °C 55 °F /  12.8 °C 29.6in /  1003.9hPa NE 3.8mph /  6.1km/h 6.4mph /  10.3km/h 75.6% 0in /  0.0mm
04:19 63.3 °F /  17.4 °C 55.2 °F /  12.9 °C 29.6in /  1003.9hPa NE 4mph /  6.5km/h 7mph /  11.3km/h 74.6% 0in /  0.0mm
04:24 64 °F /  17.8 °C 55.2 °F /  12.9 °C 29.6in /  1003.9hPa ENE 4mph /  6.5km/h 6mph /  9.7km/h 73.3% 0in /  0.0mm
04:29 64.6 °F /  18.1 °C 55.4 °F /  13 °C 29.6in /  1003.8hPa ENE 4mph /  6.5km/h 6.9mph /  11.1km/h 71.9% 0in /  0.0mm
04:34 64.9 °F /  18.3 °C 55.2 °F /  12.9 °C 29.6in /  1003.8hPa NE 3.4mph /  5.5km/h 7mph /  11.3km/h 70.7% 0in /  0.0mm
04:39 64.8 °F /  18.2 °C 55.2 °F /  12.9 °C 29.7in /  1004.0hPa North 2.9mph /  4.6km/h 4.6mph /  7.4km/h 71% 0in /  0.0mm
04:44 64.4 °F /  18 °C 55 °F /  12.8 °C 29.7in /  1004.0hPa North 2.4mph /  3.9km/h 5mph /  8km/h 71.5% 0in /  0.0mm
04:49 64 °F /  17.8 °C 55 °F /  12.8 °C 29.7in /  1004.0hPa NE 2mph /  3.2km/h 5mph /  8km/h 72.6% 0in /  0.0mm
04:54 63.7 °F /  17.6 °C 55 °F /  12.8 °C 29.7in /  1004.0hPa ENE 2.2mph /  3.6km/h 5.2mph /  8.4km/h 73.4% 0in /  0.0mm
04:59 63.3 °F /  17.4 °C 55 °F /  12.8 °C 29.6in /  1003.9hPa NNE 2.4mph /  3.9km/h 5.2mph /  8.4km/h 74% 0in /  0.0mm
05:04 63.1 °F /  17.3 °C 54.7 °F /  12.6 °C 29.6in /  1003.9hPa North 2.7mph /  4.3km/h 5mph /  8km/h 74.3% 0in /  0.0mm
05:09 62.6 °F /  17 °C 54.7 °F /  12.6 °C 29.7in /  1004.0hPa North 2.9mph /  4.6km/h 5.2mph /  8.4km/h 75.6% 0in /  0.0mm
05:14 62.1 °F /  16.7 °C 54.9 °F /  12.7 °C 29.7in /  1004.0hPa NNE 2.9mph /  4.7km/h 5mph /  8km/h 76.8% 0in /  0.0mm
05:19 61.9 °F /  16.6 °C 54.9 °F /  12.7 °C 29.7in /  1004.0hPa NNE 2.9mph /  4.6km/h 5.8mph /  9.3km/h 77.8% 0in /  0.0mm
05:24 61.7 °F /  16.5 °C 54.9 °F /  12.7 °C 29.7in /  1004.1hPa North 2.6mph /  4.2km/h 6mph /  9.7km/h 78.1% 0in /  0.0mm
05:29 61.5 °F /  16.4 °C 55 °F /  12.8 °C 29.7in /  1004.1hPa NNO 2.4mph /  3.9km/h 5mph /  8km/h 79% 0in /  0.0mm
05:34 61.5 °F /  16.4 °C 54.9 °F /  12.7 °C 29.7in /  1004.1hPa Oeste 2.4mph /  3.9km/h 5mph /  8km/h 79% 0in /  0.0mm
05:39 61.5 °F /  16.4 °C 54.9 °F /  12.7 °C 29.7in /  1004.1hPa Oeste 2.4mph /  3.9km/h 5mph /  8km/h 79% 0in /  0.0mm
05:44 61.5 °F /  16.4 °C 54.9 °F /  12.7 °C 29.7in /  1004.1hPa Oeste 2.7mph /  4.3km/h 5mph /  8km/h 79% 0in /  0.0mm
05:49 61.5 °F /  16.4 °C 54.9 °F /  12.7 °C 29.7in /  1004.1hPa Oeste 2.9mph /  4.7km/h 5mph /  8km/h 79% 0in /  0.0mm
05:54 61.5 °F /  16.4 °C 54.9 °F /  12.7 °C 29.7in /  1004.4hPa OSO 2.6mph /  4.2km/h 5.8mph /  9.3km/h 79% 0in /  0.0mm
05:59 61.3 °F /  16.3 °C 54.9 °F /  12.7 °C 29.7in /  1004.4hPa OSO 2.4mph /  3.9km/h 6mph /  9.7km/h 79% 0in /  0.0mm
06:04 61.2 °F /  16.2 °C 54.7 °F /  12.6 °C 29.7in /  1004.4hPa SE 2.2mph /  3.5km/h 4.7mph /  7.6km/h 79% 0in /  0.0mm
06:09 60.8 °F /  16 °C 54.7 °F /  12.6 °C 29.7in /  1004.4hPa ESE 2mph /  3.2km/h 5.2mph /  8.4km/h 80% 0in /  0.0mm
06:14 60.4 °F /  15.8 °C 54.7 °F /  12.6 °C 29.7in /  1004.4hPa ESE 2.5mph /  4km/h 5mph /  8km/h 80.9% 0in /  0.0mm
06:19 60.4 °F /  15.8 °C 54.9 °F /  12.7 °C 29.7in /  1004.4hPa ESE 2.9mph /  4.7km/h 4mph /  6.4km/h 81.7% 0in /  0.0mm
06:24 60.3 °F /  15.7 °C 54.7 °F /  12.6 °C 29.7in /  1004.5hPa ESE 2.1mph /  3.4km/h 3mph /  4.8km/h 82% 0in /  0.0mm
06:29 60.4 °F /  15.8 °C 54.9 °F /  12.7 °C 29.7in /  1004.5hPa ESE 1.4mph /  2.2km/h 3.6mph /  5.8km/h 82.2% 0in /  0.0mm
06:34 60.8 °F /  16 °C 55.2 °F /  12.9 °C 29.7in /  1004.5hPa SSE 1.6mph /  2.6km/h 5.2mph /  8.4km/h 81.7% 0in /  0.0mm
06:39 61 °F /  16.1 °C 55 °F /  12.8 °C 29.7in /  1004.5hPa SE 1.8mph /  2.9km/h 5mph /  8km/h 80.9% 0in /  0.0mm
06:44 61 °F /  16.1 °C 55 °F /  12.8 °C 29.7in /  1004.4hPa ESE 2.7mph /  4.4km/h 5mph /  8km/h 80.7% 0in /  0.0mm
06:49 61 °F /  16.1 °C 55 °F /  12.8 °C 29.7in /  1004.4hPa SO 3.6mph /  5.8km/h 5mph /  8km/h 80.7% 0in /  0.0mm
06:54 60.8 °F /  16 °C 54.9 °F /  12.7 °C 29.7in /  1004.8hPa SSO 3.2mph /  5.2km/h 5.2mph /  8.4km/h 81% 0in /  0.0mm
06:59 60.8 °F /  16 °C 55 °F /  12.8 °C 29.7in /  1004.8hPa SSO 2.9mph /  4.7km/h 5mph /  8km/h 81% 0in /  0.0mm
07:04 60.6 °F /  15.9 °C 54.9 °F /  12.7 °C 29.7in /  1004.8hPa SSO 1.2mph /  2km/h 3.1mph /  5km/h 81% 0in /  0.0mm
07:09 60.4 °F /  15.8 °C 54.7 °F /  12.6 °C 29.7in /  1005.1hPa Calm   4.6mph /  7.4km/h 81% 0in /  0.0mm
07:14 60.3 °F /  15.7 °C 54.5 °F /  12.5 °C 29.7in /  1005.1hPa OSO 1mph /  1.6km/h 5mph /  8km/h 81.5% 0in /  0.0mm
07:19 59.9 °F /  15.5 °C 54.3 °F /  12.4 °C 29.7in /  1005.1hPa OSO 2mph /  3.2km/h 3.1mph /  5km/h 82% 0in /  0.0mm
07:24 59.5 °F /  15.3 °C 54.1 °F /  12.3 °C 29.7in /  1005.1hPa OSO 1mph /  1.6km/h 3.5mph /  5.6km/h 82% 0in /  0.0mm
07:29 59.4 °F /  15.2 °C 54.1 °F /  12.3 °C 29.7in /  1005.0hPa Calm   4.6mph /  7.4km/h 82.9% 0in /  0.0mm
07:34 59.4 °F /  15.2 °C 54.3 °F /  12.4 °C 29.7in /  1005.0hPa OSO 0.9mph /  1.5km/h 6.2mph /  10km/h 83.2% 0in /  0.0mm
07:39 59.4 °F /  15.2 °C 54.5 °F /  12.5 °C 29.7in /  1005.2hPa ONO 1.8mph /  2.9km/h 6.9mph /  11.1km/h 84% 0in /  0.0mm
07:44 59.5 °F /  15.3 °C 54.5 °F /  12.5 °C 29.7in /  1005.2hPa SSO 3mph /  4.8km/h 7mph /  11.3km/h 83.3% 0in /  0.0mm
07:49 59.4 °F /  15.2 °C 54.5 °F /  12.5 °C 29.7in /  1005.2hPa SO 4mph /  6.5km/h 7mph /  11.3km/h 83.8% 0in /  0.0mm
07:54 59.5 °F /  15.3 °C 54.5 °F /  12.5 °C 29.7in /  1005.2hPa Sur 2.9mph /  4.7km/h 6mph /  9.7km/h 83.3% 0in /  0.0mm
07:59 59.7 °F /  15.4 °C 54.7 °F /  12.6 °C 29.7in /  1005.2hPa Sur 2mph /  3.2km/h 5mph /  8km/h 83.4% 0in /  0.0mm
08:04 59.7 °F /  15.4 °C 54.5 °F /  12.5 °C 29.7in /  1005.2hPa Sur 2mph /  3.2km/h 5mph /  8km/h 83% 0in /  0.0mm
08:09 59.5 °F /  15.3 °C 54.5 °F /  12.5 °C 29.7in /  1005.2hPa Sur 2mph /  3.2km/h 3.5mph /  5.6km/h 83% 0in /  0.0mm
08:14 59.5 °F /  15.3 °C 54.3 °F /  12.4 °C 29.7in /  1005.2hPa Sur 1.7mph /  2.7km/h 3mph /  4.8km/h 82.9% 0in /  0.0mm
08:19 59.5 °F /  15.3 °C 54.3 °F /  12.4 °C 29.7in /  1005.2hPa Sur 1.4mph /  2.2km/h 4.6mph /  7.4km/h 83% 0in /  0.0mm
08:24 59.5 °F /  15.3 °C 54.5 °F /  12.5 °C 29.7in /  1005.4hPa SSO 1.6mph /  2.6km/h 5.8mph /  9.3km/h 83.4% 0in /  0.0mm
08:29 60.1 °F /  15.6 °C 55 °F /  12.8 °C 29.7in /  1005.4hPa OSO 1.8mph /  2.9km/h 6mph /  9.7km/h 83.1% 0in /  0.0mm
08:34 60.4 °F /  15.8 °C 54.7 °F /  12.6 °C 29.7in /  1005.4hPa ONO 2.7mph /  4.4km/h 6.9mph /  11.1km/h 81.5% 0in /  0.0mm
08:39 59.9 °F /  15.5 °C 54 °F /  12.2 °C 29.7in /  1005.6hPa ONO 3.6mph /  5.8km/h 7.4mph /  11.9km/h 80.4% 0in /  0.0mm
08:44 59.2 °F /  15.1 °C 53.8 °F /  12.1 °C 29.7in /  1005.6hPa ONO 3.8mph /  6.1km/h 7mph /  11.3km/h 82.1% 0in /  0.0mm
08:49 58.6 °F /  14.8 °C 53.6 °F /  12 °C 29.7in /  1005.6hPa Oeste 4mph /  6.5km/h 6mph /  9.7km/h 83.6% 0in /  0.0mm
08:54 58.5 °F /  14.7 °C 53.8 °F /  12.1 °C 29.7in /  1005.6hPa Oeste 4mph /  6.5km/h 7.4mph /  11.9km/h 84.7% 0in /  0.0mm
08:59 58.5 °F /  14.7 °C 54.3 °F /  12.4 °C 29.7in /  1005.6hPa Oeste 4mph /  6.5km/h 7.4mph /  11.9km/h 85.9% 0in /  0.0mm
09:04 58.6 °F /  14.8 °C 54.5 °F /  12.5 °C 29.7in /  1005.6hPa Oeste 4.7mph /  7.6km/h 7mph /  11.3km/h 85.9% 0in /  0.0mm
09:09 58.6 °F /  14.8 °C 54.1 °F /  12.3 °C 29.7in /  1005.6hPa SO 5.2mph /  8.4km/h 5mph /  8km/h 85% 0in /  0.0mm
09:14 58.5 °F /  14.7 °C 54 °F /  12.2 °C 29.7in /  1005.6hPa SO 4mph /  6.4km/h 5.2mph /  8.4km/h 85% 0in /  0.0mm
09:19 58.5 °F /  14.7 °C 54 °F /  12.2 °C 29.7in /  1005.6hPa Sur 2.9mph /  4.7km/h 5.8mph /  9.3km/h 85.2% 0in /  0.0mm
09:24 58.3 °F /  14.6 °C 54.1 °F /  12.3 °C 29.7in /  1005.7hPa SSO 2.9mph /  4.7km/h 6mph /  9.7km/h 85.8% 0in /  0.0mm
09:29 58.3 °F /  14.6 °C 53.8 °F /  12.1 °C 29.7in /  1005.7hPa NO 2.9mph /  4.7km/h 5mph /  8km/h 85% 0in /  0.0mm
09:34 58.1 °F /  14.5 °C 54 °F /  12.2 °C 29.7in /  1005.7hPa NO 2.7mph /  4.3km/h 5mph /  8km/h 86% 0in /  0.0mm
09:39 58.3 °F /  14.6 °C 54.1 °F /  12.3 °C 29.7in /  1006.1hPa NO 2.4mph /  3.9km/h 4mph /  6.4km/h 86% 0in /  0.0mm
09:44 58.5 °F /  14.7 °C 54.3 °F /  12.4 °C 29.7in /  1006.1hPa NO 2.1mph /  3.4km/h 4.6mph /  7.4km/h 86.4% 0in /  0.0mm
09:49 59 °F /  15 °C 55 °F /  12.8 °C 29.7in /  1006.1hPa Oeste 1.8mph /  2.9km/h 5mph /  8km/h 86.6% 0in /  0.0mm
09:54 59.5 °F /  15.3 °C 54.9 °F /  12.7 °C 29.7in /  1006.1hPa Oeste 2.4mph /  3.8km/h 5mph /  8km/h 84.8% 0in /  0.0mm
09:59 59.5 °F /  15.3 °C 54.7 °F /  12.6 °C 29.7in /  1006.0hPa SSE 2.9mph /  4.7km/h 3.6mph /  5.8km/h 84% 0in /  0.0mm
10:04 59.5 °F /  15.3 °C 54.7 °F /  12.6 °C 29.7in /  1006.0hPa Este 2.3mph /  3.7km/h 4.6mph /  7.4km/h 83.8% 0in /  0.0mm
10:09 59.5 °F /  15.3 °C 54.7 °F /  12.6 °C 29.7in /  1006.1hPa NE 1.8mph /  2.9km/h 5mph /  8km/h 83.9% 0in /  0.0mm
10:14 59.4 °F /  15.2 °C 54.5 °F /  12.5 °C 29.7in /  1006.1hPa NE 1.6mph /  2.6km/h 2mph /  3.2km/h 84% 0in /  0.0mm
10:19 59.4 °F /  15.2 °C 54.5 °F /  12.5 °C 29.7in /  1006.1hPa NE 1.4mph /  2.2km/h 4.6mph /  7.4km/h 84% 0in /  0.0mm
10:24 59.4 °F /  15.2 °C 54.5 °F /  12.5 °C 29.7in /  1006.2hPa NE 1.6mph /  2.6km/h 5mph /  8km/h 84% 0in /  0.0mm
10:29 59.4 °F /  15.2 °C 54.5 °F /  12.5 °C 29.7in /  1006.2hPa NE 1.8mph /  2.9km/h 3.6mph /  5.8km/h 84% 0in /  0.0mm
10:34 59.5 °F /  15.3 °C 54.7 °F /  12.6 °C 29.7in /  1006.2hPa NE 1.6mph /  2.6km/h 4.6mph /  7.4km/h 84% 0in /  0.0mm
10:39 59.5 °F /  15.3 °C 54.9 °F /  12.7 °C 29.7in /  1006.3hPa NNE 1.4mph /  2.2km/h 5mph /  8km/h 84.1% 0in /  0.0mm
10:44 59.7 °F /  15.4 °C 54.9 °F /  12.7 °C 29.7in /  1006.3hPa North 2.2mph /  3.5km/h 5.2mph /  8.4km/h 84% 0in /  0.0mm
10:49 59.7 °F /  15.4 °C 55 °F /  12.8 °C 29.7in /  1006.3hPa North 2.9mph /  4.6km/h 5mph /  8km/h 84.4% 0in /  0.0mm
10:54 59.9 °F /  15.5 °C 55.4 °F /  13 °C 29.7in /  1006.4hPa NNE 2.9mph /  4.7km/h 5mph /  8km/h 85% 0in /  0.0mm
10:59 59.9 °F /  15.5 °C 55.4 °F /  13 °C 29.7in /  1006.4hPa NE 2.9mph /  4.7km/h 5mph /  8km/h 85% 0in /  0.0mm
11:04 60.1 °F /  15.6 °C 55.6 °F /  13.1 °C 29.7in /  1006.4hPa NNE 2.9mph /  4.7km/h 5mph /  8km/h 85% 0in /  0.0mm
11:09 60.1 °F /  15.6 °C 55.6 °F /  13.1 °C 29.7in /  1006.5hPa NNE 2.9mph /  4.6km/h 5mph /  8km/h 85% 0in /  0.0mm
11:14 60.1 °F /  15.6 °C 55.6 °F /  13.1 °C 29.7in /  1006.5hPa NNE 3mph /  4.8km/h 5mph /  8km/h 85% 0in /  0.0mm
11:19 60.3 °F /  15.7 °C 55.8 °F /  13.2 °C 29.7in /  1006.5hPa NNE 3.1mph /  5km/h 5mph /  8km/h 85% 0in /  0.0mm
11:24 60.3 °F /  15.7 °C 55.8 °F /  13.2 °C 29.7in /  1006.5hPa NNO 2.5mph /  4.1km/h 5mph /  8km/h 85% 0in /  0.0mm
11:29 60.4 °F /  15.8 °C 55.9 °F /  13.3 °C 29.7in /  1006.5hPa NNO 2mph /  3.2km/h 4mph /  6.4km/h 85% 0in /  0.0mm
11:34 60.6 °F /  15.9 °C 56.1 °F /  13.4 °C 29.7in /  1006.5hPa NE 1.9mph /  3km/h 4.7mph /  7.6km/h 85% 0in /  0.0mm
11:39 61 °F /  16.1 °C 56.3 °F /  13.5 °C 29.7in /  1006.5hPa NE 1.8mph /  2.9km/h 5.8mph /  9.3km/h 85% 0in /  0.0mm
11:44 61 °F /  16.1 °C 56.5 °F /  13.6 °C 29.7in /  1006.3hPa NNE 2.4mph /  3.8km/h 6mph /  9.7km/h 85% 0in /  0.0mm
11:49 61.2 °F /  16.2 °C 56.5 °F /  13.6 °C 29.7in /  1006.3hPa NNE 2.9mph /  4.7km/h 5.2mph /  8.4km/h 85% 0in /  0.0mm
11:54 61.2 °F /  16.2 °C 56.5 °F /  13.6 °C 29.7in /  1006.3hPa North 2.9mph /  4.7km/h 5.9mph /  9.5km/h 84.1% 0in /  0.0mm
11:59 61.3 °F /  16.3 °C 56.5 °F /  13.6 °C 29.7in /  1006.2hPa North 2.9mph /  4.7km/h 6.2mph /  10km/h 84% 0in /  0.0mm
12:04 61.5 °F /  16.4 °C 56.7 °F /  13.7 °C 29.7in /  1006.2hPa NNE 3.7mph /  5.9km/h 6.9mph /  11.1km/h 84% 0in /  0.0mm
12:09 61.7 °F /  16.5 °C 56.8 °F /  13.8 °C 29.7in /  1006.2hPa North 4.3mph /  6.9km/h 7mph /  11.3km/h 84% 0in /  0.0mm
12:14 62.1 °F /  16.7 °C 57 °F /  13.9 °C 29.7in /  1006.1hPa NE 3.7mph /  5.9km/h 5.9mph /  9.5km/h 83.4% 0in /  0.0mm
12:19 62.8 °F /  17.1 °C 57.2 °F /  14 °C 29.7in /  1006.1hPa ENE 3.1mph /  5km/h 6mph /  9.7km/h 82% 0in /  0.0mm
12:24 63.3 °F /  17.4 °C 56.8 °F /  13.8 °C 29.7in /  1006.1hPa Este 2.7mph /  4.4km/h 6mph /  9.7km/h 79.6% 0in /  0.0mm
12:29 64.8 °F /  18.2 °C 57.2 °F /  14 °C 29.7in /  1006.1hPa SSE 2.4mph /  3.9km/h 9.2mph /  14.8km/h 76.7% 0in /  0.0mm
12:34 66.9 °F /  19.4 °C 57.6 °F /  14.2 °C 29.7in /  1006.1hPa Sur 4.3mph /  6.9km/h 11.8mph /  19km/h 71.8% 0in /  0.0mm
12:39 68.4 °F /  20.2 °C 57.6 °F /  14.2 °C 29.7in /  1006.1hPa Sur 5.2mph /  8.4km/h 12mph /  19.3km/h 68.1% 0in /  0.0mm
12:44 69.3 °F /  20.7 °C 57.4 °F /  14.1 °C 29.7in /  1005.8hPa Sur 6mph /  9.7km/h 12mph /  19.3km/h 65.6% 0in /  0.0mm
12:49 69.8 °F /  21 °C 57 °F /  13.9 °C 29.7in /  1005.8hPa Sur 6.9mph /  11.1km/h 15.2mph /  24.5km/h 63.6% 0in /  0.0mm
12:54 70.5 °F /  21.4 °C 56.8 °F /  13.8 °C 29.7in /  1005.8hPa SSE 7.1mph /  11.5km/h 15mph /  24.1km/h 61.9% 0in /  0.0mm
12:59 70.9 °F /  21.6 °C 55.9 °F /  13.3 °C 29.7in /  1005.8hPa SSO 7.4mph /  11.9km/h 19.6mph /  31.5km/h 59.1% 0in /  0.0mm
13:04 72 °F /  22.2 °C 55.2 °F /  12.9 °C 29.7in /  1005.8hPa SSO 8.1mph /  13km/h 20mph /  32.2km/h 55.6% 0in /  0.0mm
13:09 72.5 °F /  22.5 °C 55 °F /  12.8 °C 29.7in /  1005.8hPa SSO 8.7mph /  14km/h 23.5mph /  37.8km/h 54.1% 0in /  0.0mm
13:14 73 °F /  22.8 °C 54.9 °F /  12.7 °C 29.7in /  1005.6hPa SSO 10.7mph /  17.3km/h 26.5mph /  42.6km/h 52.9% 0in /  0.0mm
13:19 73.2 °F /  22.9 °C 54.5 °F /  12.5 °C 29.7in /  1005.6hPa SSO 12.5mph /  20.1km/h 26mph /  41.8km/h 52% 0in /  0.0mm
13:24 73.2 °F /  22.9 °C 54.5 °F /  12.5 °C 29.7in /  1005.6hPa SSO 12.7mph /  20.5km/h 23mph /  37km/h 52% 0in /  0.0mm
13:29 73.2 °F /  22.9 °C 54.1 °F /  12.3 °C 29.7in /  1005.2hPa SSO 13mph /  20.9km/h 23mph /  37km/h 51.4% 0in /  0.0mm
13:34 73.4 °F /  23 °C 53.8 °F /  12.1 °C 29.7in /  1005.2hPa SSO 13.4mph /  21.5km/h 25.6mph /  41.2km/h 50.4% 0in /  0.0mm
13:39 73.6 °F /  23.1 °C 53.8 °F /  12.1 °C 29.7in /  1005.4hPa SSO 13.7mph /  22.1km/h 26mph /  41.8km/h 50% 0in /  0.0mm
13:44 73.6 °F /  23.1 °C 53.6 °F /  12 °C 29.7in /  1005.4hPa SSO 13.7mph /  22.1km/h 27.9mph /  44.9km/h 49.6% 0in /  0.0mm
13:49 73.8 °F /  23.2 °C 53.4 °F /  11.9 °C 29.7in /  1005.4hPa SSO 13.7mph /  22.1km/h 28mph /  45.1km/h 49% 0in /  0.0mm
13:54 73.8 °F /  23.2 °C 53.4 °F /  11.9 °C 29.7in /  1005.4hPa SSO 15.2mph /  24.5km/h 25.6mph /  41.2km/h 49% 0in /  0.0mm
13:59 73.8 °F /  23.2 °C 53.2 °F /  11.8 °C 29.7in /  1004.9hPa SSO 16.8mph /  27km/h 26mph /  41.8km/h 48.5% 0in /  0.0mm
14:04 73.9 °F /  23.3 °C 53.1 °F /  11.7 °C 29.7in /  1004.9hPa SSO 16.1mph /  25.9km/h 25mph /  40.2km/h 48% 0in /  0.0mm
14:09 73.9 °F /  23.3 °C 53.2 °F /  11.8 °C 29.7in /  1005.0hPa SSO 15.6mph /  25.1km/h 23mph /  37km/h 48.5% 0in /  0.0mm
14:14 73.8 °F /  23.2 °C 52.9 °F /  11.6 °C 29.7in /  1005.0hPa SSO 14.7mph /  23.6km/h 24.2mph /  38.9km/h 48.1% 0in /  0.0mm
14:19 73.8 °F /  23.2 °C 52.9 °F /  11.6 °C 29.7in /  1005.0hPa SSO 13.7mph /  22.1km/h 27.9mph /  44.9km/h 48% 0in /  0.0mm
14:24 73.8 °F /  23.2 °C 52.9 °F /  11.6 °C 29.7in /  1005.0hPa SSO 14.2mph /  22.9km/h 31.1mph /  50.1km/h 48% 0in /  0.0mm
14:29 73.8 °F /  23.2 °C 52.7 °F /  11.5 °C 29.7in /  1004.7hPa SSO 14.7mph /  23.7km/h 31mph /  49.9km/h 48% 0in /  0.0mm
14:34 73.6 °F /  23.1 °C 52.7 °F /  11.5 °C 29.7in /  1004.7hPa SSO 14.4mph /  23.1km/h 23.5mph /  37.8km/h 48% 0in /  0.0mm
14:39 73.6 °F /  23.1 °C 52.7 °F /  11.5 °C 29.7in /  1004.9hPa SSO 14mph /  22.5km/h 24.2mph /  38.9km/h 48% 0in /  0.0mm
14:44 73.6 °F /  23.1 °C 52.7 °F /  11.5 °C 29.7in /  1004.9hPa SSO 14.6mph /  23.5km/h 27.6mph /  44.4km/h 48.1% 0in /  0.0mm
14:49 73.4 °F /  23 °C 52.7 °F /  11.5 °C 29.7in /  1004.9hPa SSO 15.2mph /  24.5km/h 28.8mph /  46.3km/h 48.2% 0in /  0.0mm
14:54 73.6 °F /  23.1 °C 52.7 °F /  11.5 °C 29.7in /  1004.9hPa SSO 14.9mph /  24km/h 29mph /  46.7km/h 48% 0in /  0.0mm
14:59 73.6 °F /  23.1 °C 52.7 °F /  11.5 °C 29.7in /  1004.7hPa SSO 14.7mph /  23.7km/h 29.9mph /  48.1km/h 48.2% 0in /  0.0mm
15:04 73.6 °F /  23.1 °C 53.1 °F /  11.7 °C 29.7in /  1004.7hPa SSO 14.7mph /  23.7km/h 30mph /  48.3km/h 48.6% 0in /  0.0mm
15:09 73.6 °F /  23.1 °C 53.1 °F /  11.7 °C 29.7in /  1004.7hPa SSO 14.7mph /  23.7km/h 24.2mph /  38.9km/h 48.6% 0in /  0.0mm
15:14 73.6 °F /  23.1 °C 53.1 °F /  11.7 °C 29.7in /  1004.5hPa SSO 14.6mph /  23.5km/h 24mph /  38.6km/h 48.8% 0in /  0.0mm
15:19 73.8 °F /  23.2 °C 52.9 °F /  11.6 °C 29.7in /  1004.5hPa SSO 14.5mph /  23.3km/h 23.5mph /  37.8km/h 48% 0in /  0.0mm
15:24 73.8 °F /  23.2 °C 52.9 °F /  11.6 °C 29.7in /  1004.5hPa SSO 14mph /  22.6km/h 23mph /  37km/h 48.2% 0in /  0.0mm
15:29 73.8 °F /  23.2 °C 52.9 °F /  11.6 °C 29.7in /  1004.4hPa SSO 13.7mph /  22.1km/h 24.6mph /  39.6km/h 48% 0in /  0.0mm
15:34 73.9 °F /  23.3 °C 53.1 °F /  11.7 °C 29.7in /  1004.4hPa SSO 13.6mph /  21.9km/h 25mph /  40.2km/h 48% 0in /  0.0mm
15:39 73.8 °F /  23.2 °C 52.9 °F /  11.6 °C 29.7in /  1004.4hPa SSO 13.5mph /  21.7km/h 22mph /  35.4km/h 48% 0in /  0.0mm
15:44 73.9 °F /  23.3 °C 52.9 °F /  11.6 °C 29.7in /  1004.3hPa SSO 13.2mph /  21.3km/h 25.3mph /  40.7km/h 48% 0in /  0.0mm
15:49 74.1 °F /  23.4 °C 53.2 °F /  11.8 °C 29.7in /  1004.3hPa SSO 13mph /  20.9km/h 25mph /  40.2km/h 48% 0in /  0.0mm
15:54 74.1 °F /  23.4 °C 53.2 °F /  11.8 °C 29.7in /  1004.3hPa SSO 13.2mph /  21.3km/h 27.6mph /  44.4km/h 48% 0in /  0.0mm
15:59 74.3 °F /  23.5 °C 53.2 °F /  11.8 °C 29.6in /  1003.8hPa SSO 13.5mph /  21.7km/h 28mph /  45.1km/h 48% 0in /  0.0mm
16:04 74.3 °F /  23.5 °C 53.2 °F /  11.8 °C 29.6in /  1003.8hPa SSO 13.2mph /  21.3km/h 23mph /  37km/h 48% 0in /  0.0mm
16:09 74.5 °F /  23.6 °C 53.2 °F /  11.8 °C 29.7in /  1004.1hPa SSO 13mph /  20.9km/h 27.3mph /  43.9km/h 47.7% 0in /  0.0mm
16:14 74.7 °F /  23.7 °C 53.1 °F /  11.7 °C 29.7in /  1004.1hPa SSO 13.9mph /  22.3km/h 29.1mph /  46.8km/h 47.1% 0in /  0.0mm
16:19 74.5 °F /  23.6 °C 53.2 °F /  11.8 °C 29.7in /  1004.1hPa SSO 14.7mph /  23.7km/h 29mph /  46.7km/h 47.5% 0in /  0.0mm
16:24 74.7 °F /  23.7 °C 53.1 °F /  11.7 °C 29.7in /  1004.1hPa SSO 14.1mph /  22.7km/h 25mph /  40.2km/h 47.1% 0in /  0.0mm
16:29 74.5 °F /  23.6 °C 53.4 °F /  11.9 °C 29.6in /  1003.9hPa Sur 13.5mph /  21.7km/h 21.3mph /  34.3km/h 48% 0in /  0.0mm
16:34 74.1 °F /  23.4 °C 53.4 °F /  11.9 °C 29.6in /  1003.9hPa Sur 12mph /  19.3km/h 21.3mph /  34.3km/h 48.6% 0in /  0.0mm
16:39 73.9 °F /  23.3 °C 53.6 °F /  12 °C 29.6in /  1003.9hPa Sur 10.7mph /  17.2km/h 21mph /  33.8km/h 49% 0in /  0.0mm
16:44 73.8 °F /  23.2 °C 53.4 °F /  11.9 °C 29.6in /  1003.8hPa Sur 11.2mph /  18.1km/h 25.6mph /  41.2km/h 49% 0in /  0.0mm
16:49 73.8 °F /  23.2 °C 53.4 °F /  11.9 °C 29.6in /  1003.8hPa SSO 11.8mph /  19km/h 26mph /  41.8km/h 49% 0in /  0.0mm
16:54 73.9 °F /  23.3 °C 53.6 °F /  12 °C 29.6in /  1003.8hPa SSO 13mph /  20.9km/h 23.5mph /  37.8km/h 49% 0in /  0.0mm
16:59 74.1 °F /  23.4 °C 53.6 °F /  12 °C 29.6in /  1003.8hPa SSO 14mph /  22.5km/h 25.3mph /  40.7km/h 49% 0in /  0.0mm
17:04 74.1 °F /  23.4 °C 53.6 °F /  12 °C 29.6in /  1003.8hPa SSO 13.9mph /  22.3km/h 25mph /  40.2km/h 49% 0in /  0.0mm
17:09 74.1 °F /  23.4 °C 53.8 °F /  12.1 °C 29.6in /  1003.9hPa SSO 13.7mph /  22.1km/h 27.6mph /  44.4km/h 49% 0in /  0.0mm
17:14 74.1 °F /  23.4 °C 53.8 °F /  12.1 °C 29.6in /  1003.9hPa SSO 13.7mph /  22.1km/h 28mph /  45.1km/h 49% 0in /  0.0mm
17:19 73.9 °F /  23.3 °C 53.6 °F /  12 °C 29.6in /  1003.9hPa SSO 13.7mph /  22.1km/h 23mph /  37km/h 49% 0in /  0.0mm
17:24 73.9 °F /  23.3 °C 54 °F /  12.2 °C 29.7in /  1004.2hPa Sur 12.4mph /  20km/h 18.4mph /  29.6km/h 49.5% 0in /  0.0mm
17:29 73 °F /  22.8 °C 54.5 °F /  12.5 °C 29.7in /  1004.2hPa Sur 11.2mph /  18km/h 16mph /  25.7km/h 52.3% 0in /  0.0mm
17:34 72 °F /  22.2 °C 54.7 °F /  12.6 °C 29.7in /  1004.2hPa Sur 9.2mph /  14.8km/h 13mph /  20.9km/h 54.6% 0in /  0.0mm
17:39 71.8 °F /  22.1 °C 54 °F /  12.2 °C 29.7in /  1004.2hPa SSO 7.4mph /  11.9km/h 22.3mph /  35.9km/h 53.7% 0in /  0.0mm
17:44 72.9 °F /  22.7 °C 53.6 °F /  12 °C 29.7in /  1004.1hPa SSO 8.6mph /  13.8km/h 22.3mph /  35.9km/h 50.7% 0in /  0.0mm
17:49 73.6 °F /  23.1 °C 53.6 °F /  12 °C 29.7in /  1004.1hPa SSO 9.7mph /  15.6km/h 22mph /  35.4km/h 49.7% 0in /  0.0mm
17:54 73.8 °F /  23.2 °C 53.2 °F /  11.8 °C 29.7in /  1004.1hPa SSO 11.2mph /  18km/h 25.3mph /  40.7km/h 49% 0in /  0.0mm
17:59 73.9 °F /  23.3 °C 53.2 °F /  11.8 °C 29.7in /  1004.1hPa SSO 12.5mph /  20.1km/h 25.6mph /  41.2km/h 48.6% 0in /  0.0mm
18:04 73.9 °F /  23.3 °C 53.1 °F /  11.7 °C 29.7in /  1004.1hPa SSO 13.3mph /  21.4km/h 26mph /  41.8km/h 48% 0in /  0.0mm
18:09 73.9 °F /  23.3 °C 53.1 °F /  11.7 °C 29.7in /  1004.1hPa SSO 14mph /  22.5km/h 25.3mph /  40.7km/h 48% 0in /  0.0mm
18:14 73.9 °F /  23.3 °C 53.1 °F /  11.7 °C 29.6in /  1003.9hPa SO 14mph /  22.5km/h 25mph /  40.2km/h 48% 0in /  0.0mm
18:19 73.9 °F /  23.3 °C 53.1 °F /  11.7 °C 29.6in /  1003.9hPa SSO 14mph /  22.5km/h 29.9mph /  48.1km/h 48% 0in /  0.0mm
18:24 74.1 °F /  23.4 °C 53.2 °F /  11.8 °C 29.7in /  1004.0hPa SSO 14.4mph /  23.1km/h 30mph /  48.3km/h 48% 0in /  0.0mm
18:29 74.1 °F /  23.4 °C 53.2 °F /  11.8 °C 29.7in /  1004.0hPa SSO 14.7mph /  23.7km/h 27.9mph /  44.9km/h 48% 0in /  0.0mm
18:34 74.1 °F /  23.4 °C 52.9 °F /  11.6 °C 29.7in /  1004.0hPa SSO 15.2mph /  24.4km/h 28mph /  45.1km/h 47.3% 0in /  0.0mm
18:39 74.1 °F /  23.4 °C 52.5 °F /  11.4 °C 29.7in /  1004.3hPa SSO 15.6mph /  25.1km/h 25mph /  40.2km/h 47% 0in /  0.0mm
18:44 74.1 °F /  23.4 °C 52.7 °F /  11.5 °C 29.7in /  1004.3hPa SO 15.4mph /  24.8km/h 25mph /  40.2km/h 47.3% 0in /  0.0mm
18:49 73.9 °F /  23.3 °C 53.1 °F /  11.7 °C 29.7in /  1004.3hPa SSO 15.2mph /  24.5km/h 24mph /  38.6km/h 48% 0in /  0.0mm
18:54 73.8 °F /  23.2 °C 52.9 °F /  11.6 °C 29.7in /  1004.6hPa SO 13.7mph /  22.1km/h 22mph /  35.4km/h 48% 0in /  0.0mm
18:59 73.8 °F /  23.2 °C 52.9 °F /  11.6 °C 29.7in /  1004.6hPa SSO 12.5mph /  20.1km/h 21mph /  33.8km/h 48% 0in /  0.0mm
19:04 73.8 °F /  23.2 °C 52.9 °F /  11.6 °C 29.7in /  1004.6hPa SSO 11.9mph /  19.1km/h 21mph /  33.8km/h 48% 0in /  0.0mm
19:09 73.8 °F /  23.2 °C 52.9 °F /  11.6 °C 29.7in /  1005.1hPa SSO 11.4mph /  18.4km/h 19mph /  30.6km/h 48% 0in /  0.0mm
19:14 73.8 °F /  23.2 °C 52.9 °F /  11.6 °C 29.7in /  1005.1hPa SSO 11.4mph /  18.4km/h 22.3mph /  35.9km/h 48% 0in /  0.0mm
19:19 73.8 °F /  23.2 °C 52.5 °F /  11.4 °C 29.7in /  1005.1hPa SSO 11.4mph /  18.4km/h 22mph /  35.4km/h 47.4% 0in /  0.0mm
19:24 73.9 °F /  23.3 °C 52.3 °F /  11.3 °C 29.7in /  1005.4hPa SO 11.6mph /  18.7km/h 23.5mph /  37.8km/h 47% 0in /  0.0mm
19:29 73.9 °F /  23.3 °C 52.3 °F /  11.3 °C 29.7in /  1005.4hPa SSO 11.8mph /  19km/h 23mph /  37km/h 47% 0in /  0.0mm
19:34 73.8 °F /  23.2 °C 52.3 °F /  11.3 °C 29.7in /  1005.4hPa SSO 12.1mph /  19.4km/h 23mph /  37km/h 47.2% 0in /  0.0mm
19:39 73.8 °F /  23.2 °C 52.5 °F /  11.4 °C 29.7in /  1005.4hPa SSO 12.3mph /  19.8km/h 23mph /  37km/h 47.5% 0in /  0.0mm
19:44 73.8 °F /  23.2 °C 52.5 °F /  11.4 °C 29.7in /  1005.4hPa SSO 12.4mph /  20km/h 23mph /  37km/h 47.6% 0in /  0.0mm
19:49 73.4 °F /  23 °C 52.5 °F /  11.4 °C 29.7in /  1005.4hPa SSO 12.5mph /  20.1km/h 19mph /  30.6km/h 48% 0in /  0.0mm
19:54 73.4 °F /  23 °C 52.5 °F /  11.4 °C 29.7in /  1005.5hPa SSO 11.9mph /  19.2km/h 19mph /  30.6km/h 48% 0in /  0.0mm
19:59 73.2 °F /  22.9 °C 52.2 °F /  11.2 °C 29.7in /  1005.5hPa SO 11.4mph /  18.4km/h 21.3mph /  34.3km/h 47.5% 0in /  0.0mm
20:04 73.4 °F /  23 °C 52 °F /  11.1 °C 29.7in /  1005.5hPa SSO 11.6mph /  18.7km/h 25.3mph /  40.7km/h 47% 0in /  0.0mm
20:09 73.6 °F /  23.1 °C 51.8 °F /  11 °C 29.7in /  1005.5hPa SSO 11.8mph /  19km/h 25.3mph /  40.7km/h 46.5% 0in /  0.0mm
20:14 73.6 °F /  23.1 °C 52 °F /  11.1 °C 29.7in /  1005.5hPa SO 12.1mph /  19.4km/h 21.9mph /  35.2km/h 46.9% 0in /  0.0mm
20:19 73.6 °F /  23.1 °C 52 °F /  11.1 °C 29.7in /  1005.5hPa SO 12.3mph /  19.8km/h 22mph /  35.4km/h 46.9% 0in /  0.0mm
20:24 73.4 °F /  23 °C 51.8 °F /  11 °C 29.7in /  1005.8hPa SO 12.3mph /  19.8km/h 19mph /  30.6km/h 47% 0in /  0.0mm
20:29 73.2 °F /  22.9 °C 51.8 °F /  11 °C 29.7in /  1005.8hPa SO 12.3mph /  19.8km/h 20.8mph /  33.5km/h 47% 0in /  0.0mm
20:34 73 °F /  22.8 °C 51.6 °F /  10.9 °C 29.7in /  1005.8hPa SO 11.3mph /  18.2km/h 21mph /  33.8km/h 47% 0in /  0.0mm
20:39 73 °F /  22.8 °C 51.6 °F /  10.9 °C 29.7in /  1006.2hPa SO 10.7mph /  17.2km/h 20mph /  32.2km/h 47% 0in /  0.0mm
20:44 72.9 °F /  22.7 °C 51.4 °F /  10.8 °C 29.7in /  1006.2hPa SO 10.4mph /  16.7km/h 20mph /  32.2km/h 47% 0in /  0.0mm
20:49 72.9 °F /  22.7 °C 51.4 °F /  10.8 °C 29.7in /  1006.2hPa SO 10.2mph /  16.4km/h 21.9mph /  35.2km/h 47% 0in /  0.0mm
20:54 73 °F /  22.8 °C 51.6 °F /  10.9 °C 29.7in /  1006.6hPa SO 10.8mph /  17.4km/h 23.5mph /  37.8km/h 47% 0in /  0.0mm
20:59 73.4 °F /  23 °C 51.8 °F /  11 °C 29.7in /  1006.6hPa SO 11.2mph /  18km/h 26.5mph /  42.6km/h 46.9% 0in /  0.0mm
21:04 73.4 °F /  23 °C 51.4 °F /  10.8 °C 29.7in /  1006.6hPa SO 12.8mph /  20.6km/h 26mph /  41.8km/h 46% 0in /  0.0mm
21:09 73.4 °F /  23 °C 51.3 °F /  10.7 °C 29.7in /  1006.6hPa SSO 13.5mph /  21.7km/h 24.2mph /  38.9km/h 45.8% 0in /  0.0mm
21:14 73.4 °F /  23 °C 50.7 °F /  10.4 °C 29.7in /  1006.5hPa SSO 12.9mph /  20.8km/h 24mph /  38.6km/h 45% 0in /  0.0mm
21:19 73.2 °F /  22.9 °C 50 °F /  10 °C 29.7in /  1006.5hPa SSO 12.5mph /  20.1km/h 21.9mph /  35.2km/h 44.1% 0in /  0.0mm
21:24 73 °F /  22.8 °C 49.8 °F /  9.9 °C 29.7in /  1006.7hPa SSO 11.9mph /  19.1km/h 22mph /  35.4km/h 44% 0in /  0.0mm
21:29 72.9 °F /  22.7 °C 49.6 °F /  9.8 °C 29.7in /  1006.7hPa SSO 11.4mph /  18.4km/h 19mph /  30.6km/h 44% 0in /  0.0mm
21:34 72.5 °F /  22.5 °C 49.3 °F /  9.6 °C 29.7in /  1006.7hPa SO 11.3mph /  18.2km/h 20.8mph /  33.5km/h 43.9% 0in /  0.0mm
21:39 72.7 °F /  22.6 °C 48.9 °F /  9.4 °C 29.7in /  1007.3hPa SO 11.2mph /  18km/h 21.9mph /  35.2km/h 43% 0in /  0.0mm
21:44 72.3 °F /  22.4 °C 48.6 °F /  9.2 °C 29.7in /  1007.3hPa SO 12.3mph /  19.8km/h 22mph /  35.4km/h 42.9% 0in /  0.0mm
21:49 72.1 °F /  22.3 °C 48 °F /  8.9 °C 29.7in /  1007.3hPa SO 13mph /  20.9km/h 19mph /  30.6km/h 42.4% 0in /  0.0mm
21:54 72 °F /  22.2 °C 47.8 °F /  8.8 °C 29.8in /  1007.4hPa SO 11.3mph /  18.2km/h 21.9mph /  35.2km/h 42.6% 0in /  0.0mm
21:59 71.8 °F /  22.1 °C 47.3 °F /  8.5 °C 29.8in /  1007.4hPa SO 10.2mph /  16.4km/h 22mph /  35.4km/h 41.9% 0in /  0.0mm
22:04 72 °F /  22.2 °C 46.6 °F /  8.1 °C 29.8in /  1007.4hPa SO 10.9mph /  17.5km/h 26.8mph /  43.1km/h 40.5% 0in /  0.0mm
22:09 72.1 °F /  22.3 °C 46 °F /  7.8 °C 29.8in /  1007.4hPa SO 11.2mph /  18km/h 31.1mph /  50.1km/h 39.3% 0in /  0.0mm
22:14 72.3 °F /  22.4 °C 45.5 °F /  7.5 °C 29.8in /  1007.4hPa SO 13.4mph /  21.5km/h 31mph /  49.9km/h 38.2% 0in /  0.0mm
22:19 72.3 °F /  22.4 °C 45.5 °F /  7.5 °C 29.8in /  1007.4hPa SO 14.7mph /  23.7km/h 29mph /  46.7km/h 38.4% 0in /  0.0mm
22:24 72 °F /  22.2 °C 46 °F /  7.8 °C 29.8in /  1007.6hPa SO 14.2mph /  22.9km/h 24mph /  38.6km/h 39.6% 0in /  0.0mm
22:29 71.6 °F /  22 °C 46 °F /  7.8 °C 29.8in /  1007.6hPa SO 14mph /  22.5km/h 20mph /  32.2km/h 40% 0in /  0.0mm
22:34 71.4 °F /  21.9 °C 45.9 °F /  7.7 °C 29.8in /  1007.6hPa SSO 12.6mph /  20.3km/h 21.9mph /  35.2km/h 40% 0in /  0.0mm
22:39 71.2 °F /  21.8 °C 45.7 °F /  7.6 °C 29.8in /  1007.6hPa SO 11.8mph /  19km/h 22mph /  35.4km/h 40% 0in /  0.0mm
22:44 71.1 °F /  21.7 °C 45.3 °F /  7.4 °C 29.8in /  1007.6hPa SO 11.6mph /  18.6km/h 21mph /  33.8km/h 40% 0in /  0.0mm
22:49 70.9 °F /  21.6 °C 44.6 °F /  7 °C 29.8in /  1007.6hPa SSO 11.4mph /  18.4km/h 21.3mph /  34.3km/h 38.9% 0in /  0.0mm
22:54 71.1 °F /  21.7 °C 44.1 °F /  6.7 °C 29.8in /  1007.9hPa SO 11.3mph /  18.2km/h 21mph /  33.8km/h 37.9% 0in /  0.0mm
22:59 71.1 °F /  21.7 °C 43.3 °F /  6.3 °C 29.8in /  1007.9hPa SSO 11.2mph /  18km/h 27.6mph /  44.4km/h 36.9% 0in /  0.0mm
23:04 71.1 °F /  21.7 °C 42.6 °F /  5.9 °C 29.8in /  1007.9hPa SSO 12.1mph /  19.4km/h 28mph /  45.1km/h 35.7% 0in /  0.0mm
23:09 71.2 °F /  21.8 °C 42.1 °F /  5.6 °C 29.8in /  1008.2hPa SSO 12.5mph /  20.1km/h 23mph /  37km/h 34.9% 0in /  0.0mm
23:14 71.2 °F /  21.8 °C 41.4 °F /  5.2 °C 29.8in /  1008.2hPa SO 13.1mph /  21.1km/h 22mph /  35.4km/h 34% 0in /  0.0mm
23:19 71.2 °F /  21.8 °C 40.8 °F /  4.9 °C 29.8in /  1008.2hPa SO 13.5mph /  21.7km/h 24.2mph /  38.9km/h 33.2% 0in /  0.0mm
23:24 71.2 °F /  21.8 °C 40.6 °F /  4.8 °C 29.8in /  1008.7hPa SO 13.8mph /  22.2km/h 24.2mph /  38.9km/h 33% 0in /  0.0mm
23:29 71.1 °F /  21.7 °C 40.5 °F /  4.7 °C 29.8in /  1008.7hPa OSO 14mph /  22.5km/h 22mph /  35.4km/h 32.9% 0in /  0.0mm
23:34 71.1 °F /  21.7 °C 39.7 °F /  4.3 °C 29.8in /  1008.7hPa SO 12.4mph /  20km/h 21.3mph /  34.3km/h 32.2% 0in /  0.0mm
23:39 70.9 °F /  21.6 °C 39.6 °F /  4.2 °C 29.8in /  1008.9hPa OSO 11.4mph /  18.4km/h 21mph /  33.8km/h 32% 0in /  0.0mm
23:44 70.7 °F /  21.5 °C 39.4 °F /  4.1 °C 29.8in /  1008.9hPa SO 11.3mph /  18.2km/h 18mph /  29km/h 32% 0in /  0.0mm
23:49 70.9 °F /  21.6 °C 39.4 °F /  4.1 °C 29.8in /  1008.9hPa SO 11.2mph /  18km/h 21.3mph /  34.3km/h 32% 0in /  0.0mm
23:54 70.9 °F /  21.6 °C 39.7 °F /  4.3 °C 29.8in /  1009.2hPa SO 11.3mph /  18.2km/h 21mph /  33.8km/h 32.2% 0in /  0.0mm
23:59 70.7 °F /  21.5 °C 40.3 °F /  4.6 °C 29.8in /  1009.2hPa SO 11.4mph /  18.4km/h 21.9mph /  35.2km/h 33% 0in /  0.0mm
Murcia-Puente Tocinos, España
Compliments of Weather Underground - 3 mb

La estación de MeteoMurcia.com, publica sus datos en los siguientes proyectos:

Weather Underground PWS IMURCIAP2 Meteoclimatic www.awekas.at

W3Counter
Web Analytics